Time;durP1;ratioP1;P1;durP2;ratioP2;P2;SDS_P1;SDS_P2;PMS_P1;PMS_P2;Temp;Humidity;BMP_temperature;BMP_pressure;BME280_temperature;BME280_humidity;BME280_pressure;Samples;Min_cycle;Max_cycle;Signal;HPM_P1;HPM_P2
2022/07/15 00:01:02;;;;;;;15.33;6.33;;;15.20;99.90;;;;;;5051088;28;20234;-74
2022/07/15 00:03:28;;;;;;;17.00;6.10;;;15.20;99.90;;;;;;5057291;28;20226;-75
2022/07/15 00:05:54;;;;;;;28.13;20.17;;;15.00;99.90;;;;;;5051094;28;20205;-76
2022/07/15 00:08:19;;;;;;;19.50;7.20;;;15.00;99.90;;;;;;5054513;28;20548;-75
2022/07/15 00:10:45;;;;;;;15.93;5.97;;;15.10;99.90;;;;;;5034415;28;20198;-74
2022/07/15 00:13:10;;;;;;;19.07;12.03;;;15.00;99.90;;;;;;5053975;28;20221;-74
2022/07/15 00:15:36;;;;;;;17.47;9.20;;;14.90;99.90;;;;;;5054628;28;20202;-76
2022/07/15 00:18:03;;;;;;;21.23;8.30;;;14.80;99.90;;;;;;5056897;28;20222;-76
2022/07/15 00:20:35;;;;;;;16.77;6.30;;;14.80;99.90;;;;;;5057467;28;20221;-75
2022/07/15 00:23:07;;;;;;;21.17;9.33;;;14.90;99.90;;;;;;5046650;28;20179;-75
2022/07/15 00:25:33;;;;;;;10.97;4.37;;;14.80;99.90;;;;;;5044770;28;20206;-74
2022/07/15 00:28:01;;;;;;;14.10;6.70;;;14.70;99.90;;;;;;5046985;28;20183;-75
2022/07/15 00:30:36;;;;;;;15.13;5.63;;;14.70;99.90;;;;;;5045415;28;20226;-72
2022/07/15 00:33:02;;;;;;;17.73;5.70;;;14.70;99.90;;;;;;5049070;28;20342;-82
2022/07/15 00:35:32;;;;;;;16.80;5.70;;;14.80;99.90;;;;;;5049424;28;20195;-72
2022/07/15 00:37:58;;;;;;;17.90;6.40;;;14.70;99.90;;;;;;5050807;28;20237;-74
2022/07/15 00:40:24;;;;;;;18.90;6.20;;;14.60;99.90;;;;;;5044848;28;20256;-75
2022/07/15 00:42:50;;;;;;;13.47;5.40;;;14.50;99.90;;;;;;5045749;28;20179;-75
2022/07/15 00:45:22;;;;;;;25.90;6.83;;;14.50;99.90;;;;;;5043031;28;20193;-77
2022/07/15 00:47:51;;;;;;;19.00;6.53;;;14.50;99.90;;;;;;5050531;28;20206;-76
2022/07/15 00:50:28;;;;;;;63.93;21.53;;;14.50;99.90;;;;;;5046512;28;20218;-74
2022/07/15 00:53:00;;;;;;;16.90;4.73;;;14.60;99.90;;;;;;5033380;28;20660;-76
2022/07/15 00:55:29;;;;;;;10.87;4.50;;;14.40;99.90;;;;;;5035804;28;20240;-75
2022/07/15 00:57:58;;;;;;;13.90;5.03;;;14.30;99.90;;;;;;5045507;28;20214;-77
2022/07/15 01:00:24;;;;;;;12.83;4.67;;;14.30;99.90;;;;;;5043234;28;20214;-75
2022/07/15 01:02:51;;;;;;;15.57;7.60;;;14.30;99.90;;;;;;5045707;28;20179;-76
2022/07/15 01:05:19;;;;;;;33.37;13.27;;;14.20;99.90;;;;;;5044194;28;20237;-75
2022/07/15 01:07:45;;;;;;;12.40;4.50;;;14.20;99.90;;;;;;5045154;28;20237;-75
2022/07/15 01:10:11;;;;;;;37.53;14.27;;;14.20;99.90;;;;;;5043034;28;20540;-76
2022/07/15 01:12:37;;;;;;;12.30;4.67;;;14.20;99.90;;;;;;5027176;28;20186;-75
2022/07/15 01:15:04;;;;;;;14.80;4.63;;;14.10;99.90;;;;;;5040148;28;20195;-75
2022/07/15 01:17:31;;;;;;;8.40;3.67;;;14.10;99.90;;;;;;5043020;28;20332;-73
2022/07/15 01:19:56;;;;;;;17.00;6.07;;;14.00;99.90;;;;;;5045138;28;20300;-73
2022/07/15 01:22:22;;;;;;;16.10;6.80;;;14.00;99.90;;;;;;5043452;28;20925;-74
2022/07/15 01:24:48;;;;;;;22.33;10.73;;;13.90;99.90;;;;;;5045056;28;20194;-73
2022/07/15 01:27:13;;;;;;;18.90;6.50;;;14.10;99.90;;;;;;5043330;28;20206;-75
2022/07/15 01:29:39;;;;;;;17.07;8.10;;;14.10;99.90;;;;;;5045399;28;20202;-74
2022/07/15 01:32:05;;;;;;;15.37;5.13;;;13.90;99.90;;;;;;5043375;28;20233;-70
2022/07/15 01:34:30;;;;;;;16.80;7.10;;;13.80;99.90;;;;;;5045131;28;20214;-74
2022/07/15 01:36:56;;;;;;;14.10;5.93;;;13.80;99.90;;;;;;5043136;28;20219;-74
2022/07/15 01:39:21;;;;;;;18.27;6.67;;;13.80;99.90;;;;;;5045059;28;20292;-73
2022/07/15 01:41:47;;;;;;;17.43;5.93;;;13.80;99.90;;;;;;5042961;28;20214;-74
2022/07/15 01:44:16;;;;;;;11.60;5.43;;;13.70;99.90;;;;;;5044676;28;20277;-72
2022/07/15 01:46:41;;;;;;;12.93;4.83;;;13.70;99.90;;;;;;5043320;28;20282;-72
2022/07/15 01:49:25;;;;;;;11.63;4.63;;;13.80;99.90;;;;;;5044897;28;20755;-73
2022/07/15 01:51:55;;;;;;;20.03;5.43;;;13.70;99.90;;;;;;5039336;28;20206;-86
2022/07/15 01:54:21;;;;;;;9.30;4.07;;;13.70;99.90;;;;;;5045634;28;20324;-81
2022/07/15 01:56:48;;;;;;;10.93;4.30;;;13.70;99.90;;;;;;5044026;28;20230;-80
2022/07/15 01:59:13;;;;;;;15.93;5.60;;;13.60;99.90;;;;;;5044907;28;20209;-76
2022/07/15 02:01:39;;;;;;;13.87;5.17;;;13.50;99.90;;;;;;5043112;28;20210;-78
2022/07/15 02:04:05;;;;;;;13.43;4.93;;;13.50;99.90;;;;;;5044791;28;20535;-76
2022/07/15 02:06:30;;;;;;;13.53;4.23;;;13.60;99.90;;;;;;5043054;28;20222;-80
2022/07/15 02:08:56;;;;;;;17.77;5.83;;;13.70;99.90;;;;;;5044916;28;20195;-79
2022/07/15 02:11:22;;;;;;;16.60;5.13;;;13.60;99.90;;;;;;5043047;28;20198;-77
2022/07/15 02:13:48;;;;;;;13.50;4.83;;;13.50;99.90;;;;;;5044799;28;20194;-78
2022/07/15 02:16:14;;;;;;;27.30;8.67;;;13.60;99.90;;;;;;5024191;28;20257;-70
2022/07/15 02:18:39;;;;;;;15.63;5.57;;;13.60;99.90;;;;;;5044092;28;20237;-71
2022/07/15 02:21:05;;;;;;;17.77;6.83;;;13.70;99.90;;;;;;5040874;28;20214;-72
2022/07/15 02:23:30;;;;;;;16.63;5.27;;;13.50;99.90;;;;;;5044461;28;20171;-71
2022/07/15 02:25:56;;;;;;;21.80;6.37;;;13.40;99.90;;;;;;5041034;28;20225;-71
2022/07/15 02:28:22;;;;;;;15.77;5.73;;;13.30;99.90;;;;;;5044137;28;20209;-70
2022/07/15 02:30:47;;;;;;;13.53;4.50;;;13.40;99.90;;;;;;5041384;28;20199;-69
2022/07/15 02:33:13;;;;;;;12.67;4.60;;;13.40;99.90;;;;;;5044054;28;20183;-70
2022/07/15 02:35:39;;;;;;;15.07;5.50;;;13.50;99.90;;;;;;5045997;28;20734;-70
2022/07/15 02:38:05;;;;;;;22.47;8.60;;;13.40;99.90;;;;;;5047734;28;20873;-72
2022/07/15 02:40:31;;;;;;;43.50;17.87;;;13.30;99.90;;;;;;5046198;28;20194;-72
2022/07/15 02:43:00;;;;;;;26.03;11.40;;;13.30;99.90;;;;;;5048119;28;20203;-71
2022/07/15 02:45:29;;;;;;;30.73;12.67;;;13.20;99.90;;;;;;5046085;28;20198;-71
2022/07/15 02:47:55;;;;;;;17.83;5.47;;;13.20;99.90;;;;;;5047841;28;20187;-71
2022/07/15 02:50:21;;;;;;;12.07;4.77;;;13.30;99.90;;;;;;5048346;28;20210;-71
2022/07/15 02:52:47;;;;;;;13.87;4.97;;;13.40;99.90;;;;;;5047682;28;20230;-73
2022/07/15 02:55:14;;;;;;;15.40;5.33;;;13.30;99.90;;;;;;5048155;28;20211;-72
2022/07/15 02:57:40;;;;;;;15.40;5.83;;;13.20;99.90;;;;;;5045822;28;20250;-71
2022/07/15 03:00:11;;;;;;;16.33;5.73;;;13.10;99.90;;;;;;5047813;28;20197;-71
2022/07/15 03:02:37;;;;;;;14.27;4.77;;;13.20;99.90;;;;;;5044464;28;20202;-71
2022/07/15 03:05:03;;;;;;;12.17;5.23;;;13.20;99.90;;;;;;5047651;28;20560;-72
2022/07/15 03:07:29;;;;;;;13.27;4.63;;;13.20;99.90;;;;;;5045581;28;20246;-71
2022/07/15 03:09:55;;;;;;;8.80;4.37;;;13.20;99.90;;;;;;5047408;28;20206;-71
2022/07/15 03:12:21;;;;;;;10.93;4.20;;;13.10;99.90;;;;;;5046275;28;20422;-71
2022/07/15 03:14:46;;;;;;;15.10;6.17;;;13.20;99.90;;;;;;5047601;28;20758;-71
2022/07/15 03:17:12;;;;;;;13.47;4.90;;;13.10;99.90;;;;;;5045238;28;20268;-71
2022/07/15 03:19:37;;;;;;;16.00;5.70;;;13.00;99.90;;;;;;5047370;28;20194;-71
2022/07/15 03:22:03;;;;;;;9.27;4.60;;;13.00;99.90;;;;;;5045599;28;20277;-72
2022/07/15 03:24:29;;;;;;;12.10;4.47;;;13.10;99.90;;;;;;5047463;28;20201;-72
2022/07/15 03:26:54;;;;;;;11.07;5.27;;;13.10;99.90;;;;;;5045232;28;20237;-70
2022/07/15 03:29:20;;;;;;;9.30;3.93;;;13.10;99.90;;;;;;5029488;28;20203;-70
2022/07/15 03:31:46;;;;;;;16.40;6.00;;;13.00;99.90;;;;;;5027330;28;20218;-71
2022/07/15 03:34:11;;;;;;;12.17;4.77;;;13.10;99.90;;;;;;5047049;28;20199;-71
2022/07/15 03:36:38;;;;;;;12.13;4.70;;;13.10;99.90;;;;;;5045425;28;20211;-71
2022/07/15 03:39:05;;;;;;;16.83;5.90;;;12.90;99.90;;;;;;5047078;28;20194;-72
2022/07/15 03:41:31;;;;;;;13.93;5.83;;;12.90;99.90;;;;;;5044910;28;20281;-71
2022/07/15 03:43:56;;;;;;;15.10;6.17;;;13.00;99.90;;;;;;5046744;28;20188;-71
2022/07/15 03:46:21;;;;;;;12.20;4.00;;;13.00;99.90;;;;;;5045241;28;20209;-70
2022/07/15 03:48:47;;;;;;;14.30;5.10;;;13.00;99.90;;;;;;5047112;28;20212;-71
2022/07/15 03:51:13;;;;;;;11.83;5.33;;;13.00;99.90;;;;;;5044652;28;20217;-71
2022/07/15 03:53:38;;;;;;;11.77;4.50;;;13.10;99.90;;;;;;5046970;28;20229;-73
2022/07/15 03:56:04;;;;;;;10.73;4.20;;;13.10;99.90;;;;;;5044746;28;20622;-71
2022/07/15 03:58:29;;;;;;;11.27;3.93;;;13.00;99.90;;;;;;5047374;28;20239;-70
2022/07/15 04:00:55;;;;;;;26.63;10.50;;;13.10;99.90;;;;;;5044788;28;20191;-69
2022/07/15 04:03:20;;;;;;;9.27;4.23;;;13.00;99.90;;;;;;5047067;28;20639;-70
2022/07/15 04:05:46;;;;;;;35.03;14.93;;;13.00;99.90;;;;;;5044645;28;20199;-70
2022/07/15 04:08:11;;;;;;;18.10;6.33;;;13.00;99.90;;;;;;5046635;28;20234;-71
2022/07/15 04:10:37;;;;;;;14.60;5.30;;;13.00;99.90;;;;;;5046715;28;20298;-70
2022/07/15 04:13:03;;;;;;;14.03;5.87;;;12.90;99.90;;;;;;5044604;28;20214;-70
2022/07/15 04:15:28;;;;;;;24.87;9.80;;;13.00;99.90;;;;;;5046195;28;20660;-70
2022/07/15 04:17:55;;;;;;;8.53;4.53;;;13.00;99.90;;;;;;5044615;28;20203;-70
2022/07/15 04:20:21;;;;;;;15.57;4.97;;;13.00;99.90;;;;;;5046443;28;20275;-71
2022/07/15 04:22:47;;;;;;;8.40;4.27;;;13.10;99.90;;;;;;5026350;28;20202;-71
2022/07/15 04:25:17;;;;;;;5.70;3.53;;;13.10;99.90;;;;;;5045915;28;20230;-71
2022/07/15 04:27:43;;;;;;;13.93;4.73;;;12.90;99.90;;;;;;5044239;28;20214;-71
2022/07/15 04:30:09;;;;;;;10.53;4.93;;;12.80;99.90;;;;;;5046015;28;20195;-70
2022/07/15 04:32:35;;;;;;;11.33;4.77;;;12.80;99.90;;;;;;5043886;28;20210;-70
2022/07/15 04:35:01;;;;;;;13.73;5.57;;;13.00;99.90;;;;;;5045632;28;20271;-70
2022/07/15 04:37:28;;;;;;;9.53;4.23;;;13.00;99.90;;;;;;5044045;28;20219;-71
2022/07/15 04:39:54;;;;;;;7.50;4.30;;;12.90;99.90;;;;;;5045513;28;20199;-71
2022/07/15 04:42:20;;;;;;;10.87;4.63;;;13.00;99.90;;;;;;5044166;28;20203;-72
2022/07/15 04:44:47;;;;;;;12.50;5.03;;;13.10;99.90;;;;;;5045673;28;20194;-70
2022/07/15 04:47:13;;;;;;;13.10;4.00;;;13.20;99.90;;;;;;5043482;28;20211;-70
2022/07/15 04:52:24;;;;;;;9.23;4.27;;;13.30;99.90;;;;;;5041099;28;20802;-71
2022/07/15 04:54:50;;;;;;;11.23;5.27;;;13.50;99.90;;;;;;5045123;28;20277;-71
2022/07/15 04:57:15;;;;;;;13.67;5.27;;;13.40;99.90;;;;;;5044072;28;20309;-70
2022/07/15 04:59:41;;;;;;;12.47;4.93;;;13.40;99.90;;;;;;5045640;28;20191;-71
2022/07/15 05:02:06;;;;;;;9.23;4.00;;;13.60;99.90;;;;;;5043226;28;20190;-71
2022/07/15 05:04:32;;;;;;;6.30;3.20;;;13.70;99.90;;;;;;5045377;28;20206;-72
2022/07/15 05:06:57;;;;;;;12.43;3.77;;;13.90;99.90;;;;;;5043172;28;20735;-71
2022/07/15 05:09:23;;;;;;;7.47;3.30;;;13.80;99.90;;;;;;5045615;28;20206;-71
2022/07/15 05:11:48;;;;;;;11.00;4.33;;;13.70;99.90;;;;;;5043313;28;20207;-70
2022/07/15 05:14:13;;;;;;;9.03;4.23;;;13.60;99.90;;;;;;5045426;28;20199;-71
2022/07/15 05:16:39;;;;;;;17.60;4.77;;;13.60;99.90;;;;;;5043228;28;20211;-70
2022/07/15 05:19:04;;;;;;;10.90;4.20;;;13.70;99.90;;;;;;5045552;28;20191;-69
2022/07/15 05:21:31;;;;;;;8.93;4.83;;;13.90;99.90;;;;;;5043580;28;20197;-70
2022/07/15 05:23:56;;;;;;;13.23;5.27;;;14.00;99.90;;;;;;5045522;28;20187;-70
2022/07/15 05:26:22;;;;;;;7.50;4.30;;;14.00;99.90;;;;;;5043690;28;20195;-70
2022/07/15 05:28:47;;;;;;;17.90;5.13;;;14.10;99.90;;;;;;5045853;28;20191;-69
2022/07/15 05:31:13;;;;;;;23.53;10.70;;;14.10;99.90;;;;;;5043137;28;20698;-71
2022/07/15 05:33:38;;;;;;;9.80;4.10;;;14.10;99.90;;;;;;5045834;28;20191;-70
2022/07/15 05:36:04;;;;;;;20.30;9.33;;;14.20;99.90;;;;;;5043201;28;21023;-70
2022/07/15 05:38:30;;;;;;;7.67;3.53;;;14.40;99.90;;;;;;5045401;28;20620;-70
2022/07/15 05:40:56;;;;;;;7.63;3.77;;;14.30;99.90;;;;;;5045007;28;20199;-71
2022/07/15 05:43:22;;;;;;;16.97;5.23;;;14.50;99.90;;;;;;5044234;28;20214;-70
2022/07/15 05:45:47;;;;;;;13.40;4.03;;;14.70;99.90;;;;;;5045228;28;20298;-79
2022/07/15 05:48:13;;;;;;;6.60;3.87;;;14.80;99.90;;;;;;5025071;28;20297;-72
2022/07/15 05:50:38;;;;;;;5.83;3.13;;;14.90;99.90;;;;;;5048570;28;20183;-71
2022/07/15 05:53:04;;;;;;;4.77;3.33;;;14.90;99.90;;;;;;5042765;28;20290;-70
2022/07/15 05:55:29;;;;;;;7.00;3.73;;;14.90;99.90;;;;;;5045022;28;20277;-70
2022/07/15 05:57:56;;;;;;;6.43;3.57;;;15.00;99.90;;;;;;5042844;28;20215;-72
2022/07/15 06:00:22;;;;;;;8.93;4.77;;;15.10;99.90;;;;;;5045235;28;20344;-72
2022/07/15 06:02:47;;;;;;;8.90;2.80;;;15.20;99.90;;;;;;5043178;28;20310;-71
2022/07/15 06:05:13;;;;;;;11.00;4.80;;;15.40;99.90;;;;;;5044397;28;20195;-70
2022/07/15 06:07:38;;;;;;;3.47;2.03;;;15.40;99.90;;;;;;5047119;28;20230;-70
2022/07/15 06:10:05;;;;;;;8.70;3.20;;;15.40;99.90;;;;;;5049034;28;20336;-72
2022/07/15 06:12:31;;;;;;;6.37;2.87;;;15.40;99.90;;;;;;5047172;28;20202;-70
2022/07/15 06:14:56;;;;;;;9.27;2.73;;;15.30;99.90;;;;;;5049031;28;20563;-70
2022/07/15 06:17:22;;;;;;;4.40;2.80;;;15.30;99.90;;;;;;5047068;28;20253;-71
2022/07/15 06:19:47;;;;;;;5.03;2.80;;;15.40;99.90;;;;;;5049009;28;20187;-71
2022/07/15 06:22:13;;;;;;;4.60;2.53;;;15.50;99.90;;;;;;5046687;28;20206;-71
2022/07/15 06:24:39;;;;;;;6.60;2.67;;;15.70;99.90;;;;;;5048957;28;20210;-71
2022/07/15 06:27:08;;;;;;;7.43;3.40;;;15.80;99.90;;;;;;5046989;28;20274;-71
2022/07/15 06:29:34;;;;;;;3.60;2.30;;;16.00;99.90;;;;;;5048499;28;20198;-71
2022/07/15 06:31:59;;;;;;;7.23;3.17;;;15.90;99.90;;;;;;5046682;28;20207;-72
2022/07/15 06:34:25;;;;;;;5.97;2.60;;;16.00;99.90;;;;;;5031253;28;20195;-71
2022/07/15 06:36:50;;;;;;;7.47;4.03;;;16.20;99.90;;;;;;5046368;28;20222;-70
2022/07/15 06:39:26;;;;;;;8.77;4.00;;;16.30;99.90;;;;;;5049076;28;20302;-72
2022/07/15 06:41:52;;;;;;;11.50;4.10;;;16.10;99.90;;;;;;5043327;28;20199;-72
2022/07/15 06:44:17;;;;;;;6.67;2.90;;;15.80;99.90;;;;;;5048538;28;20510;-70
2022/07/15 06:46:43;;;;;;;9.83;3.33;;;15.90;99.90;;;;;;5046372;28;20199;-71
2022/07/15 06:49:09;;;;;;;7.73;3.73;;;15.80;99.90;;;;;;5048210;28;20209;-70
2022/07/15 06:51:34;;;;;;;9.10;4.07;;;16.00;99.90;;;;;;5045987;28;20206;-70
2022/07/15 06:54:00;;;;;;;8.10;3.50;;;16.20;99.90;;;;;;5047866;28;20194;-69
2022/07/15 06:56:25;;;;;;;11.27;7.93;;;16.10;99.90;;;;;;5045667;28;20995;-70
2022/07/15 06:58:51;;;;;;;7.73;3.93;;;16.20;99.90;;;;;;5048339;28;20240;-70
2022/07/15 07:01:16;;;;;;;17.17;7.07;;;16.30;99.90;;;;;;5045764;28;20195;-71
2022/07/15 07:03:42;;;;;;;6.80;3.20;;;16.10;99.90;;;;;;5048322;28;20283;-70
2022/07/15 07:06:08;;;;;;;4.90;3.20;;;16.00;99.90;;;;;;5047291;28;20230;-69
2022/07/15 07:08:33;;;;;;;6.97;3.33;;;16.30;99.90;;;;;;5046310;28;20223;-70
2022/07/15 07:10:59;;;;;;;7.17;3.57;;;16.30;99.90;;;;;;5047132;28;20565;-71
2022/07/15 07:13:24;;;;;;;14.93;8.30;;;16.40;99.90;;;;;;5043688;28;20195;-70
2022/07/15 07:15:50;;;;;;;5.17;2.53;;;16.40;99.90;;;;;;5047199;28;20191;-70
2022/07/15 07:18:15;;;;;;;19.50;4.57;;;16.50;99.90;;;;;;5044803;28;20588;-70
2022/07/15 07:20:43;;;;;;;6.43;2.77;;;16.80;99.90;;;;;;5047421;28;20187;-70
2022/07/15 07:23:10;;;;;;;7.03;3.10;;;17.10;99.90;;;;;;5045382;28;20658;-71
2022/07/15 07:25:35;;;;;;;2.93;1.93;;;17.10;99.90;;;;;;5047515;28;20522;-71
2022/07/15 07:28:03;;;;;;;9.50;3.70;;;16.90;99.90;;;;;;5045614;28;20222;-71
2022/07/15 07:30:29;;;;;;;5.20;3.27;;;16.90;99.90;;;;;;5047300;28;20235;-71
2022/07/15 07:32:55;;;;;;;8.43;3.67;;;16.80;99.60;;;;;;5045146;28;20222;-71
2022/07/15 07:35:20;;;;;;;5.63;3.47;;;16.90;99.40;;;;;;5047133;28;20194;-75
2022/07/15 07:37:46;;;;;;;4.93;3.13;;;17.00;99.70;;;;;;5045208;28;20951;-72
2022/07/15 07:40:12;;;;;;;6.57;3.73;;;17.10;98.40;;;;;;5046797;28;20194;-71
2022/07/15 07:42:38;;;;;;;6.50;2.80;;;17.00;98.80;;;;;;5044735;28;20234;-71
2022/07/15 07:45:04;;;;;;;6.03;3.50;;;16.90;98.60;;;;;;5046206;28;20206;-71
2022/07/15 07:47:33;;;;;;;3.50;2.50;;;17.00;98.40;;;;;;5044117;28;20329;-70
2022/07/15 07:49:58;;;;;;;5.87;2.77;;;17.00;98.60;;;;;;5046544;28;20219;-70
2022/07/15 07:52:24;;;;;;;4.93;3.47;;;17.10;97.70;;;;;;5044552;28;20210;-70
2022/07/15 07:54:50;;;;;;;4.60;2.07;;;17.30;98.10;;;;;;5046826;28;20195;-70
2022/07/15 07:57:15;;;;;;;5.03;2.60;;;17.10;97.90;;;;;;5044657;28;20747;-69
2022/07/15 07:59:41;;;;;;;5.03;3.00;;;17.10;97.60;;;;;;5049653;28;20219;-69
2022/07/15 08:02:07;;;;;;;5.70;3.17;;;17.00;97.90;;;;;;5043066;28;20196;-69
2022/07/15 08:04:32;;;;;;;9.67;2.97;;;16.90;97.80;;;;;;5045344;28;20186;-71
2022/07/15 08:06:58;;;;;;;3.37;2.20;;;17.10;97.60;;;;;;5033940;28;20772;-74
2022/07/15 08:09:27;;;;;;;7.07;2.80;;;17.20;96.50;;;;;;5030583;28;20249;-72
2022/07/15 08:11:52;;;;;;;3.23;2.77;;;17.20;96.60;;;;;;5052351;28;20286;-74
2022/07/15 08:14:18;;;;;;;4.93;3.73;;;17.40;96.20;;;;;;5049195;28;20721;-73
2022/07/15 08:16:45;;;;;;;10.73;7.23;;;17.40;95.90;;;;;;5049157;28;20217;-69
2022/07/15 08:19:15;;;;;;;6.80;2.40;;;17.40;96.10;;;;;;5046288;28;20627;-70
2022/07/15 08:21:41;;;;;;;16.07;9.13;;;17.50;95.30;;;;;;5044370;28;20568;-70
2022/07/15 08:24:06;;;;;;;6.77;2.70;;;17.60;93.90;;;;;;5046225;28;20227;-70
2022/07/15 08:26:32;;;;;;;4.43;3.03;;;17.80;93.20;;;;;;5045085;28;20658;-81
2022/07/15 08:28:57;;;;;;;4.43;2.90;;;18.00;93.10;;;;;;5029442;28;20267;-78
2022/07/15 08:31:23;;;;;;;7.00;3.13;;;18.00;92.60;;;;;;5047095;28;20200;-79
2022/07/15 08:33:52;;;;;;;6.37;2.97;;;17.60;92.90;;;;;;5042407;28;20200;-78
2022/07/15 08:36:18;;;;;;;8.83;6.43;;;17.70;93.00;;;;;;5042377;28;20293;-78
2022/07/15 08:38:43;;;;;;;5.47;2.90;;;17.60;92.30;;;;;;5044640;28;20657;-78
2022/07/15 08:41:09;;;;;;;4.87;3.13;;;17.40;92.70;;;;;;5046630;28;20282;-78
2022/07/15 08:43:34;;;;;;;5.23;3.20;;;17.60;93.30;;;;;;5044644;28;20237;-78
2022/07/15 08:46:00;;;;;;;5.40;2.73;;;17.50;93.00;;;;;;5046390;28;20187;-77
2022/07/15 08:48:31;;;;;;;3.23;2.40;;;17.40;93.40;;;;;;5045053;28;20207;-77
2022/07/15 08:50:59;;;;;;;5.10;2.63;;;17.50;92.80;;;;;;5031293;28;20672;-77
2022/07/15 08:53:27;;;;;;;10.30;6.63;;;17.50;92.90;;;;;;5042369;28;20264;-78
2022/07/15 08:55:52;;;;;;;3.60;2.83;;;17.50;92.40;;;;;;5045607;28;20694;-78
2022/07/15 08:58:18;;;;;;;4.87;2.57;;;17.70;92.60;;;;;;5044188;28;20215;-76
2022/07/15 09:00:44;;;;;;;6.83;3.17;;;18.10;92.30;;;;;;5046154;28;20620;-78
2022/07/15 09:03:09;;;;;;;6.60;3.03;;;17.80;92.20;;;;;;5044163;28;20191;-77
2022/07/15 09:05:36;;;;;;;8.13;3.43;;;17.90;92.00;;;;;;5027717;28;20203;-77
2022/07/15 09:08:05;;;;;;;9.23;3.03;;;17.80;92.00;;;;;;5043809;28;20233;-78
2022/07/15 09:10:46;;;;;;;5.63;2.87;;;18.00;92.10;;;;;;5045689;28;20197;-77
2022/07/15 09:13:30;;;;;;;5.07;2.73;;;17.80;92.30;;;;;;5031411;28;20219;-76
2022/07/15 09:16:01;;;;;;;6.20;2.67;;;17.90;92.70;;;;;;5044746;28;20198;-77
2022/07/15 09:18:29;;;;;;;6.93;2.77;;;18.00;92.00;;;;;;5038718;28;20238;-77
2022/07/15 09:20:55;;;;;;;11.47;2.93;;;17.90;92.40;;;;;;5045264;28;20192;-76
2022/07/15 09:23:29;;;;;;;4.07;2.60;;;17.90;92.40;;;;;;5044000;28;20729;-76
2022/07/15 09:25:57;;;;;;;5.63;3.13;;;18.00;92.30;;;;;;5037892;28;20188;-76
2022/07/15 09:28:36;;;;;;;6.73;3.10;;;18.00;92.70;;;;;;5044065;28;20208;-77
2022/07/15 09:33:46;;;;;;;3.43;2.07;;;17.90;92.20;;;;;;5044216;28;20211;-77
2022/07/15 09:36:21;;;;;;;6.87;2.97;;;18.00;92.10;;;;;;5045141;28;20200;-77
2022/07/15 09:38:55;;;;;;;6.73;2.50;;;17.90;91.70;;;;;;5040616;28;20967;-76
2022/07/15 09:41:31;;;;;;;5.80;3.07;;;18.10;91.70;;;;;;5044598;28;20681;-76
2022/07/15 09:44:01;;;;;;;5.13;3.73;;;18.20;91.30;;;;;;5043654;28;20207;-77
2022/07/15 09:46:48;;;;;;;3.80;2.40;;;18.30;90.70;;;;;;5045102;28;20193;-76
2022/07/15 09:49:23;;;;;;;9.07;3.27;;;18.30;91.30;;;;;;5045491;28;20220;-77
2022/07/15 09:51:54;;;;;;;5.17;3.17;;;18.60;90.90;;;;;;5026620;28;20568;-76
2022/07/15 09:54:21;;;;;;;6.67;2.87;;;18.40;90.90;;;;;;5045244;28;20188;-77
2022/07/15 09:56:48;;;;;;;4.57;2.67;;;18.40;91.30;;;;;;5045095;28;20679;-77
2022/07/15 09:59:55;;;;;;;4.87;2.57;;;18.50;91.10;;;;;;5025059;28;20194;-77
2022/07/15 10:02:22;;;;;;;6.87;3.27;;;18.90;90.90;;;;;;5039632;28;20197;-77
2022/07/15 10:04:47;;;;;;;3.60;2.50;;;19.40;89.20;;;;;;5045128;28;20343;-76
2022/07/15 10:07:13;;;;;;;4.37;2.43;;;19.10;89.20;;;;;;5043504;28;20257;-77
2022/07/15 10:09:40;;;;;;;3.53;2.30;;;18.90;88.10;;;;;;5045573;28;20190;-76
2022/07/15 10:12:32;;;;;;;8.37;5.90;;;19.00;88.40;;;;;;5042578;28;20212;-76
2022/07/15 10:15:05;;;;;;;3.50;2.07;;;19.00;87.50;;;;;;5042623;28;20254;-76
2022/07/15 10:17:55;;;;;;;7.37;2.63;;;18.60;87.70;;;;;;5028455;28;20713;-78
2022/07/15 10:20:39;;;;;;;2.63;2.10;;;18.30;87.70;;;;;;5044904;28;20950;-74
2022/07/15 10:23:22;;;;;;;8.87;2.23;;;18.10;88.90;;;;;;5041568;28;20713;-77
2022/07/15 10:26:23;;;;;;;5.93;4.10;;;18.20;90.00;;;;;;5034974;28;20188;-76
2022/07/15 10:29:00;;;;;;;4.33;2.47;;;18.50;87.90;;;;;;5043967;28;20213;-76
2022/07/15 10:31:29;;;;;;;3.10;2.43;;;18.80;88.30;;;;;;5041753;28;20215;-76
2022/07/15 10:34:06;;;;;;;5.73;2.47;;;19.10;86.60;;;;;;5042932;28;20206;-76
2022/07/15 10:36:58;;;;;;;2.87;2.27;;;19.20;85.00;;;;;;5044715;28;20233;-76
2022/07/15 10:39:26;;;;;;;6.80;3.37;;;19.20;84.30;;;;;;5029010;28;20191;-75
2022/07/15 10:42:03;;;;;;;4.63;2.97;;;18.70;84.90;;;;;;5044421;28;20207;-76
2022/07/15 10:44:35;;;;;;;3.30;2.73;;;18.90;85.20;;;;;;5034404;28;20284;-76
2022/07/15 10:47:12;;;;;;;3.90;2.47;;;18.80;85.20;;;;;;5041596;28;20285;-76
2022/07/15 10:49:42;;;;;;;4.33;2.23;;;19.00;84.50;;;;;;5045152;28;20209;-76
2022/07/15 10:52:16;;;;;;;9.30;4.50;;;19.20;83.20;;;;;;4999548;28;20698;-78
2022/07/15 10:54:50;;;;;;;4.00;1.70;;;19.60;82.00;;;;;;5015850;28;20188;-77
2022/07/15 10:57:19;;;;;;;5.13;4.40;;;20.00;81.30;;;;;;5017631;28;20217;-77
2022/07/15 10:59:54;;;;;;;3.07;1.80;;;20.20;80.50;;;;;;5028730;28;20896;-77
2022/07/15 11:02:23;;;;;;;8.00;5.53;;;19.90;78.70;;;;;;5022602;28;21008;-77
2022/07/15 11:04:50;;;;;;;6.93;3.23;;;19.50;78.70;;;;;;5028813;28;20182;-77
2022/07/15 11:07:16;;;;;;;7.90;4.50;;;19.10;79.80;;;;;;5025683;28;20324;-77
2022/07/15 11:09:53;;;;;;;3.60;2.40;;;19.30;79.90;;;;;;5028612;28;20284;-77
2022/07/15 11:12:44;;;;;;;7.83;6.13;;;19.50;80.50;;;;;;5026026;28;20625;-77
2022/07/15 11:15:18;;;;;;;2.50;1.83;;;19.80;77.70;;;;;;5025842;28;20667;-77
2022/07/15 11:17:49;;;;;;;5.00;2.10;;;20.00;78.10;;;;;;5026346;28;20225;-77
2022/07/15 11:20:21;;;;;;;3.33;2.53;;;20.40;77.40;;;;;;5027859;28;20205;-76
2022/07/15 11:22:49;;;;;;;4.83;2.23;;;20.60;75.60;;;;;;5026098;28;20282;-75
2022/07/15 11:25:30;;;;;;;5.13;1.80;;;20.20;76.30;;;;;;5028222;28;20219;-76
2022/07/15 11:28:03;;;;;;;4.00;2.57;;;19.80;77.10;;;;;;5014228;28;20211;-77
2022/07/15 11:30:44;;;;;;;4.67;3.33;;;19.60;77.60;;;;;;5027969;28;20241;-76
2022/07/15 11:33:15;;;;;;;4.17;2.60;;;19.50;77.60;;;;;;5020783;28;20208;-76
2022/07/15 11:35:44;;;;;;;4.60;2.60;;;19.30;77.60;;;;;;5026402;28;20195;-76
2022/07/15 11:38:09;;;;;;;3.20;2.03;;;19.10;78.70;;;;;;5024605;28;20212;-76
2022/07/15 11:46:06;;;;;;;7.43;2.13;;;20.10;76.70;;;;;;5037704;28;20255;-77
2022/07/15 11:48:38;;;;;;;3.47;1.97;;;20.20;75.20;;;;;;5022934;28;20773;-75
2022/07/15 11:51:05;;;;;;;4.20;2.43;;;20.10;76.20;;;;;;5009324;28;20259;-78
2022/07/15 11:53:43;;;;;;;3.43;2.67;;;19.60;77.50;;;;;;5030966;28;20927;-74
2022/07/15 11:56:10;;;;;;;3.77;2.97;;;19.40;76.90;;;;;;5026800;28;20708;-76
2022/07/15 11:58:39;;;;;;;3.40;2.23;;;19.70;78.20;;;;;;5030717;28;20259;-74
2022/07/15 12:01:09;;;;;;;8.93;2.73;;;20.30;76.40;;;;;;5037607;28;20684;-74
2022/07/15 12:03:43;;;;;;;5.27;3.07;;;20.60;75.90;;;;;;5028597;28;20943;-74
2022/07/15 12:06:16;;;;;;;5.67;2.90;;;20.20;75.10;;;;;;5036078;28;20184;-75
2022/07/15 12:08:46;;;;;;;6.37;2.37;;;20.30;75.60;;;;;;5030253;28;20571;-75
2022/07/15 12:11:20;;;;;;;3.70;2.73;;;20.20;74.50;;;;;;5037027;28;20318;-74
2022/07/15 12:14:08;;;;;;;4.73;2.13;;;20.20;76.10;;;;;;5023509;28;20204;-75
2022/07/15 12:16:45;;;;;;;5.47;3.33;;;20.30;74.00;;;;;;5032033;28;20817;-80
2022/07/15 12:19:20;;;;;;;5.33;2.07;;;21.00;70.80;;;;;;5025122;28;20194;-80
2022/07/15 12:21:48;;;;;;;3.23;2.50;;;20.60;72.10;;;;;;5031490;28;20205;-74
2022/07/15 12:24:18;;;;;;;2.20;1.87;;;20.90;71.80;;;;;;5025661;28;20204;-75
2022/07/15 12:26:50;;;;;;;2.50;2.30;;;20.90;71.30;;;;;;5032912;28;20205;-74
2022/07/15 12:29:23;;;;;;;3.53;1.40;;;21.00;70.40;;;;;;5030805;28;20198;-74
2022/07/15 12:32:10;;;;;;;2.07;1.87;;;20.70;70.80;;;;;;5034482;28;20195;-77
2022/07/15 12:34:52;;;;;;;1.57;1.20;;;19.90;70.60;;;;;;5028755;28;20204;-75
2022/07/15 12:37:30;;;;;;;3.57;1.90;;;19.40;72.00;;;;;;5027181;28;20273;-76
2022/07/15 12:40:04;;;;;;;3.43;2.33;;;18.90;73.70;;;;;;5035645;28;20238;-79
2022/07/15 12:42:37;;;;;;;5.50;4.23;;;18.90;75.10;;;;;;5030536;28;20324;-76
2022/07/15 12:45:13;;;;;;;4.10;2.07;;;18.80;75.90;;;;;;5014729;28;20254;-75
2022/07/15 12:48:17;;;;;;;4.83;4.40;;;19.10;76.00;;;;;;5029735;28;20182;-75
2022/07/15 12:50:49;;;;;;;2.33;1.60;;;19.80;75.40;;;;;;5026147;28;20279;-75
2022/07/15 12:53:16;;;;;;;3.70;2.23;;;20.70;73.20;;;;;;5023958;28;20201;-75
2022/07/15 12:55:45;;;;;;;2.87;1.37;;;21.20;70.80;;;;;;5026064;28;20230;-75
2022/07/15 12:58:13;;;;;;;4.97;1.77;;;21.30;70.00;;;;;;5023636;28;20238;-74
2022/07/15 13:00:39;;;;;;;2.47;1.43;;;21.40;70.00;;;;;;5026051;28;20190;-73